createdAt,value
2018-11-23T00:02:26.089Z,98459.33
2018-11-23T00:05:00.104Z,98457.57
2018-11-23T00:07:33.717Z,98465.68
2018-11-23T00:10:05.347Z,98463.59
2018-11-23T00:12:36.724Z,98463.63
2018-11-23T00:15:12.879Z,98466.23
2018-11-23T00:17:45.464Z,98471.73
2018-11-23T00:20:18.992Z,98469.95
2018-11-23T00:22:50.329Z,98473.75
2018-11-23T00:25:24.268Z,98478.05
2018-11-23T00:27:57.940Z,98478.48
2018-11-23T00:30:30.518Z,98479.76
2018-11-23T00:33:03.220Z,98478.05
2018-11-23T00:35:34.522Z,98478.97
2018-11-23T00:38:07.969Z,98485.75
2018-11-23T00:40:39.231Z,98480.19
2018-11-23T00:43:11.687Z,98477.16
2018-11-23T00:45:44.509Z,98478.48
2018-11-23T00:48:17.017Z,98482.34
2018-11-23T00:50:49.878Z,98482.23
2018-11-23T00:53:21.196Z,98479.28
2018-11-23T00:55:54.409Z,98478.48
2018-11-23T00:58:29.351Z,98475.12
2018-11-23T01:01:00.871Z,98490.67
2018-11-23T01:03:32.183Z,98482.98
2018-11-23T01:06:04.914Z,98481.39
2018-11-23T01:08:38.587Z,98484.75
2018-11-23T01:11:11.554Z,98479.30
2018-11-23T01:13:46.502Z,98472.91
2018-11-23T01:16:20.694Z,98472.48
2018-11-23T01:18:51.947Z,98478.59
2018-11-23T01:21:25.075Z,98487.52
2018-11-23T01:23:56.559Z,98478.16
2018-11-23T01:26:35.426Z,98484.06
2018-11-23T01:29:07.606Z,98485.78
2018-11-23T01:31:40.376Z,98490.04
2018-11-23T01:34:13.219Z,98489.16
2018-11-23T01:36:44.559Z,98482.48
2018-11-23T01:39:15.864Z,98477.34
2018-11-23T01:41:48.939Z,98489.25
2018-11-23T01:44:20.200Z,98483.75
2018-11-23T01:46:51.511Z,98484.58
2018-11-23T01:49:25.103Z,98482.09
2018-11-23T01:51:57.818Z,98481.98
2018-11-23T01:54:29.051Z,98477.74
2018-11-23T01:57:02.303Z,98482.97
2018-11-23T01:59:33.535Z,98475.80
2018-11-23T02:02:07.905Z,98485.41
2018-11-23T02:04:41.109Z,98484.98
2018-11-23T02:07:12.922Z,98490.45
2018-11-23T02:09:45.985Z,98498.11
2018-11-23T02:12:19.604Z,98497.69
2018-11-23T02:14:55.220Z,98498.55
2018-11-23T02:17:26.413Z,98498.21
2018-11-23T02:19:59.132Z,98496.12
2018-11-23T02:22:33.663Z,98498.23
2018-11-23T02:25:04.941Z,98490.23
2018-11-23T02:27:39.386Z,98489.39
2018-11-23T02:30:14.312Z,98494.91
2018-11-23T02:32:47.548Z,98493.97
2018-11-23T02:35:21.336Z,98495.71
2018-11-23T02:37:55.252Z,98494.48
2018-11-23T02:40:26.885Z,98500.82
2018-11-23T02:43:00.061Z,98502.89
2018-11-23T02:45:31.399Z,98502.93
2018-11-23T02:48:05.074Z,98502.53
2018-11-23T02:50:36.729Z,98500.43
2018-11-23T02:53:09.975Z,98507.53
2018-11-23T02:55:44.129Z,98501.17
2018-11-23T02:58:16.475Z,98511.78
2018-11-23T03:00:49.285Z,98510.09
2018-11-23T03:03:22.134Z,98512.65
2018-11-23T03:05:54.637Z,98511.37
2018-11-23T03:08:28.251Z,98510.53
2018-11-23T03:11:01.947Z,98508.91
2018-11-23T03:13:34.607Z,98514.84
2018-11-23T03:16:07.456Z,98514.03
2018-11-23T03:18:40.629Z,98516.10
2018-11-23T03:21:13.964Z,98527.88
2018-11-23T03:23:46.343Z,98530.87
2018-11-23T03:26:20.012Z,98527.14
2018-11-23T03:28:51.432Z,98532.17
2018-11-23T03:31:26.269Z,98527.92
2018-11-23T03:33:59.635Z,98529.13
2018-11-23T03:36:31.026Z,98538.38
2018-11-23T03:39:03.672Z,98542.63
2018-11-23T03:41:37.404Z,98546.04
2018-11-23T03:44:09.725Z,98541.88
2018-11-23T03:46:44.056Z,98549.45
2018-11-23T03:49:17.025Z,98552.47
2018-11-23T03:51:51.076Z,98543.56
2018-11-23T03:54:23.740Z,98548.66
2018-11-23T03:56:56.479Z,98550.00
2018-11-23T03:59:29.464Z,98554.97
2018-11-23T04:02:02.500Z,98550.28
2018-11-23T04:04:33.882Z,98561.41
2018-11-23T04:07:05.151Z,98559.69
2018-11-23T04:09:39.702Z,98554.19
2018-11-23T04:12:14.349Z,98563.92
2018-11-23T04:14:45.582Z,98569.00
2018-11-23T04:17:17.014Z,98565.22
2018-11-23T04:19:49.758Z,98558.08
2018-11-23T04:22:21.243Z,98564.86
2018-11-23T04:24:54.500Z,98563.62
2018-11-23T04:27:27.740Z,98566.59
2018-11-23T04:30:03.015Z,98568.66
2018-11-23T04:32:36.718Z,98573.28
2018-11-23T04:35:12.804Z,98572.84
2018-11-23T04:37:46.093Z,98569.98
2018-11-23T04:40:18.682Z,98567.89
2018-11-23T04:42:52.419Z,98573.34
2018-11-23T04:45:24.383Z,98580.96
2018-11-23T04:47:56.889Z,98584.73
2018-11-23T04:50:28.806Z,98586.36
2018-11-23T04:53:01.327Z,98586.73
2018-11-23T04:55:32.696Z,98587.11
2018-11-23T04:58:06.034Z,98600.23
2018-11-23T05:00:40.100Z,98595.55
2018-11-23T05:03:13.131Z,98601.48
2018-11-23T05:05:46.992Z,98591.33
2018-11-23T05:08:19.751Z,98594.28
2018-11-23T05:10:53.080Z,98599.82
2018-11-23T05:13:25.749Z,98599.73
2018-11-23T05:15:58.700Z,98612.45
2018-11-23T05:18:30.070Z,98614.54
2018-11-23T05:21:01.479Z,98621.30
2018-11-23T05:23:34.929Z,98622.18
2018-11-23T05:26:08.380Z,98628.95
2018-11-23T05:28:42.757Z,98626.41
2018-11-23T05:31:15.607Z,98629.80
2018-11-23T05:33:47.085Z,98637.36
2018-11-23T05:36:20.027Z,98643.69
2018-11-23T05:38:52.987Z,98642.41
2018-11-23T05:41:24.530Z,98648.34
2018-11-23T05:43:56.374Z,98655.51
2018-11-23T05:46:29.523Z,98658.09
2018-11-23T05:49:02.614Z,98655.55
2018-11-23T05:51:35.301Z,98658.47
2018-11-23T05:54:07.627Z,98661.03
2018-11-23T05:56:39.076Z,98669.46
2018-11-23T05:59:10.539Z,98668.20
2018-11-23T06:01:43.428Z,98678.34
2018-11-23T06:04:14.802Z,98679.19
2018-11-23T06:06:46.357Z,98673.66
2018-11-23T06:09:20.574Z,98676.18
2018-11-23T06:11:52.094Z,98680.42
2018-11-23T06:14:25.249Z,98677.00
2018-11-23T06:16:56.798Z,98681.61
2018-11-23T06:19:29.659Z,98680.73
2018-11-23T06:22:02.811Z,98684.61
2018-11-23T06:24:36.031Z,98684.18
2018-11-23T06:27:08.004Z,98693.45
2018-11-23T06:29:41.637Z,98695.57
2018-11-23T06:32:49.703Z,98700.62
2018-11-23T06:35:23.338Z,98698.87
2018-11-23T06:37:56.206Z,98700.16
2018-11-23T06:40:27.888Z,98702.66
2018-11-23T06:43:02.507Z,98702.23
2018-11-23T06:45:37.495Z,98708.09
2018-11-23T06:48:11.422Z,98711.11
2018-11-23T06:50:44.792Z,98707.70
2018-11-23T06:53:17.544Z,98714.50
2018-11-23T06:55:50.646Z,98714.03
2018-11-23T06:58:21.943Z,98711.16
2018-11-23T07:00:56.298Z,98707.70
2018-11-23T07:03:30.032Z,98709.38
2018-11-23T07:06:03.416Z,98710.20
2018-11-23T07:08:37.352Z,98708.45
2018-11-23T07:11:10.990Z,98711.41
2018-11-23T07:13:46.127Z,98708.89
2018-11-23T07:16:17.585Z,98716.11
2018-11-23T07:18:50.961Z,98713.11
2018-11-23T07:21:24.165Z,98711.84
2018-11-23T07:23:58.019Z,98706.30
2018-11-23T07:26:29.901Z,98705.41
2018-11-23T07:29:03.503Z,98710.84
2018-11-23T07:31:34.896Z,98713.03
2018-11-23T07:34:06.448Z,98719.75
2018-11-23T07:36:40.302Z,98729.48
2018-11-23T07:39:48.745Z,98728.14
2018-11-23T07:42:24.735Z,98727.58
2018-11-23T07:44:57.600Z,98732.13
2018-11-23T07:47:31.351Z,98735.73
2018-11-23T07:50:02.655Z,98733.52
2018-11-23T07:52:36.739Z,98734.22
2018-11-23T07:55:09.375Z,98740.14
2018-11-23T07:57:41.921Z,98734.52
2018-11-23T08:00:21.399Z,98734.92
2018-11-23T08:02:54.559Z,98736.58
2018-11-23T08:05:27.971Z,98738.89
2018-11-23T08:07:59.315Z,98741.06
2018-11-23T08:10:30.028Z,98734.84
2018-11-23T08:13:02.786Z,98734.69
2018-11-23T08:15:35.045Z,98734.75
2018-11-23T08:18:08.073Z,98738.08
2018-11-23T08:20:39.553Z,98739.98
2018-11-23T08:23:11.005Z,98740.14
2018-11-23T08:25:44.351Z,98739.68
2018-11-23T08:28:17.465Z,98745.20
2018-11-23T08:30:49.260Z,98749.50
2018-11-23T08:33:23.259Z,98747.48
2018-11-23T08:35:57.725Z,98746.09
2018-11-23T08:38:29.836Z,98753.00
2018-11-23T08:41:01.221Z,98756.66
2018-11-23T08:43:34.131Z,98752.80
2018-11-23T08:46:07.582Z,98756.38
2018-11-23T08:48:40.553Z,98758.47
2018-11-23T08:51:13.843Z,98762.69
2018-11-23T08:53:48.044Z,98762.81
2018-11-23T08:56:21.796Z,98759.36
2018-11-23T08:58:53.495Z,98759.25
2018-11-23T09:01:26.228Z,98756.05
2018-11-23T09:03:59.713Z,98731.38
2018-11-23T09:06:31.121Z,98757.66
2018-11-23T09:09:04.194Z,98754.27
2018-11-23T09:11:37.438Z,98752.77
2018-11-23T09:14:11.523Z,98749.91
2018-11-23T09:16:43.930Z,98750.11
2018-11-23T09:19:18.069Z,98750.84
2018-11-23T09:21:51.123Z,98744.77
2018-11-23T09:24:23.092Z,98736.34
2018-11-23T09:26:56.459Z,98741.24
2018-11-23T09:29:28.258Z,98736.38
2018-11-23T09:32:00.919Z,98738.19
2018-11-23T09:34:33.638Z,98739.12
2018-11-23T09:37:06.712Z,98740.80
2018-11-23T09:39:37.933Z,98740.58
2018-11-23T09:42:09.198Z,98735.44
2018-11-23T09:44:40.394Z,98732.08
2018-11-23T09:47:11.561Z,98734.15
2018-11-23T09:49:42.782Z,98738.98
2018-11-23T09:52:14.051Z,98734.06
2018-11-23T09:54:45.382Z,98734.34
2018-11-23T09:57:16.788Z,98746.16
2018-11-23T09:59:48.137Z,98741.47
2018-11-23T10:02:19.401Z,98742.97
2018-11-23T10:04:50.689Z,98734.51
2018-11-23T10:07:21.930Z,98729.92
2018-11-23T10:09:53.512Z,98735.58
2018-11-23T10:12:24.878Z,98733.66
2018-11-23T10:14:56.141Z,98737.08
2018-11-23T10:17:27.488Z,98737.56
2018-11-23T10:19:58.715Z,98739.92
2018-11-23T10:22:30.007Z,98742.34
2018-11-23T10:25:01.326Z,98740.31
2018-11-23T10:27:32.463Z,98740.78
2018-11-23T10:30:03.765Z,98742.86
2018-11-23T10:32:34.942Z,98742.67
2018-11-23T10:35:06.531Z,98740.02
2018-11-23T10:37:37.908Z,98741.06
2018-11-23T10:40:15.279Z,98735.48
2018-11-23T10:42:46.715Z,98743.02
2018-11-23T10:45:19.918Z,98745.20
2018-11-23T10:47:51.872Z,98740.22
2018-11-23T10:50:27.253Z,98740.89
2018-11-23T10:53:00.850Z,98748.43
2018-11-23T10:55:33.454Z,98744.06
2018-11-23T10:58:04.828Z,98747.64
2018-11-23T11:01:09.755Z,98746.77
2018-11-23T11:03:57.657Z,98753.55
2018-11-23T11:06:45.930Z,98751.56
2018-11-23T11:09:17.281Z,98749.49
2018-11-23T11:11:48.552Z,98754.20
2018-11-23T11:14:19.834Z,98761.24
2018-11-23T11:16:51.171Z,98753.57
2018-11-23T11:19:22.458Z,98759.70
2018-11-23T11:21:53.816Z,98758.61
2018-11-23T11:24:25.177Z,98756.80
2018-11-23T11:26:56.628Z,98755.58
2018-11-23T11:29:28.794Z,98755.41
2018-11-23T11:32:00.067Z,98753.55
2018-11-23T11:34:31.406Z,98749.61
2018-11-23T11:37:02.895Z,98744.63
2018-11-23T11:39:34.056Z,98754.25
2018-11-23T11:42:05.428Z,98754.77
2018-11-23T11:44:36.635Z,98749.94
2018-11-23T11:47:08.263Z,98743.16
2018-11-23T11:49:39.625Z,98735.11
2018-11-23T11:52:10.935Z,98737.26
2018-11-23T11:54:42.302Z,98734.84
2018-11-23T11:57:13.628Z,98732.08
2018-11-23T11:59:44.935Z,98732.08
2018-11-23T12:02:16.199Z,98735.28
2018-11-23T12:04:47.389Z,98730.52
2018-11-23T12:07:18.646Z,98730.71
2018-11-23T12:09:49.857Z,98729.02
2018-11-23T12:12:21.095Z,98730.86
2018-11-23T12:14:52.347Z,98735.52
2018-11-23T12:17:23.913Z,98734.42
2018-11-23T12:19:55.239Z,98741.11
2018-11-23T12:22:26.525Z,98739.02
2018-11-23T12:24:57.827Z,98746.31
2018-11-23T12:27:29.503Z,98741.96
2018-11-23T12:30:00.258Z,98744.80
2018-11-23T12:32:31.525Z,98748.08
2018-11-23T12:35:02.820Z,98744.66
2018-11-23T12:37:34.108Z,98746.08
2018-11-23T12:40:05.335Z,98748.02
2018-11-23T12:42:36.702Z,98749.53
2018-11-23T12:45:09.998Z,98748.82
2018-11-23T12:47:41.242Z,98753.14
2018-11-23T12:50:20.198Z,98754.99
2018-11-23T12:52:51.421Z,98762.05
2018-11-23T12:55:25.710Z,98759.39
2018-11-23T12:57:56.976Z,98764.95
2018-11-23T13:00:29.127Z,98760.13
2018-11-23T13:03:04.721Z,98762.81
2018-11-23T13:05:36.628Z,98768.05
2018-11-23T13:08:08.418Z,98768.01
2018-11-23T13:10:39.644Z,98771.66
2018-11-23T13:13:12.188Z,98777.43
2018-11-23T13:15:43.444Z,98775.76
2018-11-23T13:18:14.882Z,98782.97
2018-11-23T13:20:46.232Z,98776.61
2018-11-23T13:23:20.508Z,98779.59
2018-11-23T13:25:51.838Z,98761.23
2018-11-23T13:28:23.020Z,98781.87
2018-11-23T13:30:54.257Z,98778.94
2018-11-23T13:33:25.407Z,98788.47
2018-11-23T13:35:56.678Z,98779.52
2018-11-23T13:38:27.862Z,98785.72
2018-11-23T13:40:59.391Z,98787.89
2018-11-23T13:43:31.703Z,98785.44
2018-11-23T13:46:03.002Z,98789.43
2018-11-23T13:48:34.289Z,98790.54
2018-11-23T13:51:06.007Z,98792.81
2018-11-23T13:53:37.180Z,98789.83
2018-11-23T13:56:09.438Z,98794.76
2018-11-23T13:58:40.737Z,98785.36
2018-11-23T14:01:11.952Z,98789.58
2018-11-23T14:03:43.229Z,98783.58
2018-11-23T14:06:14.336Z,98784.98
2018-11-23T14:08:45.551Z,98794.37
2018-11-23T14:11:16.814Z,98790.33
2018-11-23T14:13:48.067Z,98790.97
2018-11-23T14:16:19.257Z,98789.33
2018-11-23T14:18:50.619Z,98787.88
2018-11-23T14:21:21.917Z,98792.19
2018-11-23T14:23:53.313Z,98791.00
2018-11-23T14:26:24.803Z,98794.56
2018-11-23T14:28:56.097Z,98802.70
2018-11-23T14:31:27.387Z,98799.78
2018-11-23T14:33:58.688Z,98798.02
2018-11-23T14:36:29.889Z,98795.10
2018-11-23T14:39:01.114Z,98802.48
2018-11-23T14:41:32.386Z,98797.86
2018-11-23T14:44:06.904Z,98802.57
2018-11-23T14:46:35.058Z,98800.96
2018-11-23T14:49:08.448Z,98800.26
2018-11-23T14:51:39.745Z,98802.80
2018-11-23T14:54:11.035Z,98798.23
2018-11-23T14:56:42.328Z,98803.03
2018-11-23T14:59:13.536Z,98800.95
2018-11-23T15:01:44.853Z,98810.63
2018-11-23T15:04:16.153Z,98810.63
2018-11-23T15:06:50.432Z,98819.48
2018-11-23T15:09:21.812Z,98820.45
2018-11-23T15:11:53.064Z,98823.64
2018-11-23T15:14:24.257Z,98819.87
2018-11-23T15:16:55.555Z,98822.34
2018-11-23T15:19:26.827Z,98812.70
2018-11-23T15:21:58.161Z,98833.11
2018-11-23T15:24:29.504Z,98828.98
2018-11-23T15:27:00.771Z,98835.31
2018-11-23T15:29:31.973Z,98836.18
2018-11-23T15:32:03.317Z,98837.48
2018-11-23T15:34:34.521Z,98850.23
2018-11-23T15:37:05.764Z,98846.44
2018-11-23T15:39:37.032Z,98849.87
2018-11-23T15:42:08.287Z,98855.36
2018-11-23T15:44:39.517Z,98855.42
2018-11-23T15:47:10.889Z,98860.92
2018-11-23T15:49:42.061Z,98861.33
2018-11-23T15:52:13.431Z,98866.36
2018-11-23T15:54:44.657Z,98869.81
2018-11-23T15:57:15.911Z,98870.19
2018-11-23T15:59:47.123Z,98868.07
2018-11-23T16:02:18.374Z,98863.48
2018-11-23T16:04:49.676Z,98869.05
2018-11-23T16:07:21.030Z,98869.80
2018-11-23T16:09:52.221Z,98869.72
2018-11-23T16:12:23.541Z,98879.81
2018-11-23T16:14:54.820Z,98875.16
2018-11-23T16:17:25.946Z,98874.80
2018-11-23T16:19:57.264Z,98873.18
2018-11-23T16:22:28.624Z,98876.58
2018-11-23T16:24:59.943Z,98868.98
2018-11-23T16:27:31.242Z,98871.11
2018-11-23T16:30:02.555Z,98882.09
2018-11-23T16:32:33.852Z,98879.20
2018-11-23T16:35:05.143Z,98884.75
2018-11-23T16:37:36.343Z,98883.94
2018-11-23T16:40:09.291Z,98880.05
2018-11-23T16:42:40.932Z,98880.52
2018-11-23T16:45:15.360Z,98882.72
2018-11-23T16:47:47.131Z,98881.48
2018-11-23T16:50:18.475Z,98880.27
2018-11-23T16:52:50.386Z,98879.41
2018-11-23T16:55:22.899Z,98882.75
2018-11-23T16:57:55.561Z,98882.30
2018-11-23T17:00:37.283Z,98882.31
2018-11-23T17:03:10.542Z,98891.19
2018-11-23T17:05:46.404Z,98892.05
2018-11-23T17:08:17.635Z,98892.94
2018-11-23T17:10:48.942Z,98886.15
2018-11-23T17:13:20.078Z,98884.02
2018-11-23T17:15:51.341Z,98885.72
2018-11-23T17:18:22.607Z,98888.73
2018-11-23T17:20:53.883Z,98884.52
2018-11-23T17:23:25.553Z,98895.53
2018-11-23T17:25:56.783Z,98890.03
2018-11-23T17:28:28.043Z,98887.52
2018-11-23T17:30:59.308Z,98889.26
2018-11-23T17:33:30.622Z,98886.30
2018-11-23T17:36:02.236Z,98890.98
2018-11-23T17:38:37.567Z,98892.67
2018-11-23T17:41:04.858Z,98892.25
2018-11-23T17:43:36.143Z,98891.86
2018-11-23T17:46:07.320Z,98894.83
2018-11-23T17:48:38.992Z,98889.74
2018-11-23T17:51:10.297Z,98893.58
2018-11-23T17:53:41.707Z,98890.59
2018-11-23T17:56:12.986Z,98889.31
2018-11-23T17:58:45.123Z,98891.03
2018-11-23T18:01:19.359Z,98899.48
2018-11-23T18:03:50.601Z,98896.10
2018-11-23T18:09:12.210Z,98900.75
2018-11-23T18:11:43.395Z,98899.92
2018-11-23T18:14:14.662Z,98902.87
2018-11-23T18:16:45.865Z,98904.58
2018-11-23T18:19:17.175Z,98911.79
2018-11-23T18:21:48.502Z,98910.91
2018-11-23T18:24:19.783Z,98911.78
2018-11-23T18:26:51.104Z,98920.23
2018-11-23T18:29:22.320Z,98918.98
2018-11-23T18:31:53.615Z,98918.55
2018-11-23T18:34:24.959Z,98923.61
2018-11-23T18:36:56.263Z,98923.61
2018-11-23T18:39:27.584Z,98926.16
2018-11-23T18:41:58.842Z,98918.13
2018-11-23T18:44:30.109Z,98917.70
2018-11-23T18:47:01.302Z,98921.07
2018-11-23T18:49:32.581Z,98920.66
2018-11-23T18:52:03.937Z,98919.39
2018-11-23T18:54:35.076Z,98911.36
2018-11-23T18:57:06.727Z,98914.32
2018-11-23T18:59:37.968Z,98912.20
2018-11-23T19:02:09.213Z,98910.91
2018-11-23T19:07:56.272Z,98913.03
2018-11-23T19:10:26.968Z,98916.84
2018-11-23T19:12:57.659Z,98921.06
2018-11-23T19:15:28.271Z,98915.16
2018-11-23T19:17:58.746Z,98916.42
2018-11-23T19:20:29.413Z,98921.48
2018-11-23T19:23:00.042Z,98915.13
2018-11-23T19:25:30.651Z,98913.88
2018-11-23T19:28:01.183Z,98924.88
2018-11-23T19:30:32.114Z,98924.01
2018-11-23T19:33:02.731Z,98921.45
2018-11-23T19:35:33.304Z,98926.55
2018-11-23T19:38:03.875Z,98923.61
2018-11-23T19:40:34.356Z,98927.42
2018-11-23T19:43:04.943Z,98926.14
2018-11-23T19:45:35.776Z,98924.42
2018-11-23T19:48:06.464Z,98922.30
2018-11-23T19:50:37.036Z,98925.25
2018-11-23T19:53:07.656Z,98920.17
2018-11-23T19:55:38.183Z,98920.60
2018-11-23T19:58:08.779Z,98920.22
2018-11-23T20:00:39.318Z,98912.17
2018-11-23T20:03:09.942Z,98921.04
2018-11-23T20:05:42.764Z,98920.58
2018-11-23T20:08:13.393Z,98923.12
2018-11-23T20:10:44.051Z,98931.17
2018-11-23T20:13:14.624Z,98931.17
2018-11-23T20:15:45.882Z,98923.97
2018-11-23T20:18:16.456Z,98930.33
2018-11-23T20:20:47.034Z,98927.39
2018-11-23T20:23:17.603Z,98931.15
2018-11-23T20:25:48.203Z,98922.73
2018-11-23T20:28:18.724Z,98920.14
2018-11-23T20:30:49.348Z,98914.23
2018-11-23T20:33:19.975Z,98917.63
2018-11-23T20:35:50.992Z,98917.63
2018-11-23T20:38:21.359Z,98921.86
2018-11-23T20:40:51.917Z,98921.44
2018-11-23T20:43:22.500Z,98918.06
2018-11-23T20:45:53.306Z,98923.55
2018-11-23T20:48:24.795Z,98922.28
2018-11-23T20:50:55.434Z,98918.94
2018-11-23T20:53:25.936Z,98914.31
2018-11-23T20:55:56.513Z,98915.16
2018-11-23T20:58:27.080Z,98913.45
2018-11-23T21:00:57.731Z,98907.55
2018-11-23T21:03:29.338Z,98906.69
2018-11-23T21:05:59.982Z,98905.00
2018-11-23T21:08:30.555Z,98906.70
2018-11-23T21:11:01.082Z,98911.77
2018-11-23T21:13:31.657Z,98912.18
2018-11-23T21:16:02.116Z,98910.08
2018-11-23T21:18:32.596Z,98916.43
2018-11-23T21:21:03.040Z,98909.66
2018-11-23T21:23:33.604Z,98904.57
2018-11-23T21:26:04.574Z,98907.12
2018-11-23T21:28:35.178Z,98913.05
2018-11-23T21:31:05.744Z,98911.35
2018-11-23T21:33:36.284Z,98914.72
2018-11-23T21:36:06.953Z,98921.05
2018-11-23T21:38:37.551Z,98914.73
2018-11-23T21:41:08.197Z,98917.66
2018-11-23T21:43:38.808Z,98926.08
2018-11-23T21:46:09.644Z,98927.37
2018-11-23T21:48:40.197Z,98928.27
2018-11-23T21:51:10.726Z,98929.09
2018-11-23T21:53:41.387Z,98923.59
2018-11-23T21:56:11.937Z,98922.34
2018-11-23T21:58:42.798Z,98921.08
2018-11-23T22:01:13.363Z,98922.77
2018-11-23T22:03:43.940Z,98915.59
2018-11-23T22:06:15.558Z,98919.80
2018-11-23T22:08:46.275Z,98911.35
2018-11-23T22:11:16.843Z,98912.63
2018-11-23T22:13:47.503Z,98921.08
2018-11-23T22:16:17.989Z,98914.73
2018-11-23T22:18:48.547Z,98909.63
2018-11-23T22:21:19.064Z,98902.44
2018-11-23T22:23:49.711Z,98895.25
2018-11-23T22:26:20.572Z,98894.80
2018-11-23T22:28:51.093Z,98897.34
2018-11-23T22:31:21.603Z,98899.44
2018-11-23T22:33:52.190Z,98904.95
2018-11-23T22:36:22.714Z,98908.73
2018-11-23T22:38:53.244Z,98904.91
2018-11-23T22:41:23.712Z,98902.80
2018-11-23T22:43:54.229Z,98901.52
2018-11-23T22:46:25.100Z,98902.38
2018-11-23T22:48:56.023Z,98898.96
2018-11-23T22:51:26.587Z,98896.41
2018-11-23T22:53:57.155Z,98891.31
2018-11-23T22:56:27.726Z,98897.22
2018-11-23T22:58:58.300Z,98889.56
2018-11-23T23:01:29.006Z,98889.96
2018-11-23T23:03:59.524Z,98891.64
2018-11-23T23:06:30.268Z,98898.03
2018-11-23T23:09:00.878Z,98894.61
2018-11-23T23:11:31.468Z,98893.36
2018-11-23T23:14:02.806Z,98885.68
2018-11-23T23:16:33.934Z,98896.29
2018-11-23T23:19:04.545Z,98896.29
2018-11-23T23:21:35.187Z,98898.84
2018-11-23T23:24:11.625Z,98891.19
2018-11-23T23:26:36.592Z,98898.41
2018-11-23T23:29:07.284Z,98899.69
2018-11-23T23:31:37.878Z,98899.66
2018-11-23T23:34:08.374Z,98906.02
2018-11-23T23:36:38.935Z,98907.31
2018-11-23T23:39:09.931Z,98905.99
2018-11-23T23:41:41.080Z,98904.72
2018-11-23T23:44:11.653Z,98905.56
2018-11-23T23:46:44.267Z,98902.18
2018-11-23T23:49:14.862Z,98897.96
2018-11-23T23:51:45.439Z,98897.09
2018-11-23T23:54:16.008Z,98895.37
2018-11-23T23:56:46.624Z,98894.91
2018-11-23T23:59:17.307Z,98896.22
